createdAt,value
2023-01-29T00:02:04.749Z,103020.63
2023-01-29T00:04:31.600Z,103024.09
2023-01-29T00:06:58.125Z,103012.91
2023-01-29T00:09:24.545Z,103009.50
2023-01-29T00:11:50.981Z,103010.34
2023-01-29T00:14:17.376Z,103004.34
2023-01-29T00:16:43.760Z,102997.47
2023-01-29T00:19:10.227Z,102983.78
2023-01-29T00:21:36.617Z,102983.75
2023-01-29T00:24:03.119Z,102989.75
2023-01-29T00:26:29.671Z,102988.94
2023-01-29T00:29:01.927Z,102978.63
2023-01-29T00:31:28.779Z,102983.75
2023-01-29T00:33:55.347Z,102994.91
2023-01-29T00:36:22.049Z,103002.63
2023-01-29T00:38:58.545Z,102993.22
2023-01-29T00:41:51.583Z,102997.53
2023-01-29T00:44:36.878Z,102991.53
2023-01-29T00:47:04.139Z,102993.22
2023-01-29T00:49:38.166Z,102993.22
2023-01-29T00:52:33.718Z,102980.34
2023-01-29T00:55:00.825Z,102979.47
2023-01-29T00:57:29.174Z,102978.59
2023-01-29T00:59:55.634Z,102980.31
2023-01-29T01:02:41.322Z,102983.75
2023-01-29T01:05:13.981Z,102973.44
2023-01-29T01:07:41.279Z,102976.03
2023-01-29T01:10:21.415Z,102970.00
2023-01-29T01:12:55.542Z,102972.59
2023-01-29T01:15:24.238Z,102967.41
2023-01-29T01:17:55.585Z,102958.00
2023-01-29T01:20:22.842Z,102954.56
2023-01-29T01:22:49.375Z,102951.97
2023-01-29T01:25:16.108Z,102962.28
2023-01-29T01:27:42.568Z,102968.28
2023-01-29T01:30:16.578Z,102972.56
2023-01-29T01:32:43.459Z,102975.97
2023-01-29T01:35:11.274Z,102977.69
2023-01-29T01:37:38.669Z,102975.94
2023-01-29T01:40:12.688Z,102976.81
2023-01-29T01:42:40.174Z,102974.25
2023-01-29T01:45:17.766Z,102971.69
2023-01-29T01:47:48.923Z,102972.56
2023-01-29T01:50:20.976Z,102982.03
2023-01-29T01:52:52.981Z,102970.84
2023-01-29T01:55:23.052Z,102976.00
2023-01-29T01:57:54.729Z,102979.44
2023-01-29T02:00:22.113Z,102975.13
2023-01-29T02:03:07.173Z,102975.09
2023-01-29T02:05:54.945Z,102970.78
2023-01-29T02:09:01.534Z,102972.53
2023-01-29T02:11:27.925Z,102972.47
2023-01-29T02:13:54.328Z,102972.47
2023-01-29T02:16:22.281Z,102976.75
2023-01-29T02:18:49.949Z,102979.34
2023-01-29T02:21:31.586Z,102971.63
2023-01-29T02:24:11.401Z,102977.63
2023-01-29T02:26:41.448Z,102981.09
2023-01-29T02:29:26.917Z,102983.66
2023-01-29T02:32:02.521Z,102984.50
2023-01-29T02:35:10.964Z,102987.91
2023-01-29T02:37:45.478Z,103000.78
2023-01-29T02:40:29.045Z,102993.06
2023-01-29T02:43:14.468Z,102997.34
2023-01-29T02:45:53.948Z,102999.06
2023-01-29T02:48:24.135Z,102997.31
2023-01-29T02:51:05.847Z,102992.25
2023-01-29T02:53:39.221Z,102993.06
2023-01-29T02:56:18.705Z,102994.81
2023-01-29T02:58:54.827Z,102993.97
2023-01-29T03:01:30.227Z,102997.34
2023-01-29T03:04:06.784Z,102992.22
2023-01-29T03:06:35.948Z,102981.91
2023-01-29T03:09:08.108Z,102977.63
2023-01-29T03:11:40.552Z,102974.22
2023-01-29T03:14:20.507Z,102981.94
2023-01-29T03:16:51.893Z,102964.75
2023-01-29T03:19:41.197Z,102964.75
2023-01-29T03:22:10.962Z,102962.19
2023-01-29T03:25:07.268Z,102956.16
2023-01-29T03:28:17.421Z,102959.63
2023-01-29T03:31:18.883Z,102953.56
2023-01-29T03:33:51.971Z,102948.44
2023-01-29T03:36:27.829Z,102947.56
2023-01-29T03:38:54.427Z,102933.00
2023-01-29T03:41:31.368Z,102931.28
2023-01-29T03:44:16.398Z,102933.81
2023-01-29T03:47:21.652Z,102932.09
2023-01-29T03:49:54.123Z,102925.25
2023-01-29T03:52:26.128Z,102920.91
2023-01-29T03:55:07.259Z,102926.09
2023-01-29T03:57:51.961Z,102922.66
2023-01-29T04:00:23.554Z,102907.19
2023-01-29T04:03:17.966Z,102926.97
2023-01-29T04:05:58.408Z,102911.53
2023-01-29T04:08:30.470Z,102909.78
2023-01-29T04:11:02.213Z,102909.78
2023-01-29T04:13:33.594Z,102900.34
2023-01-29T04:16:01.572Z,102906.31
2023-01-29T04:18:27.950Z,102906.31
2023-01-29T04:20:54.910Z,102904.59
2023-01-29T04:23:26.274Z,102893.47
2023-01-29T04:26:06.827Z,102890.00
2023-01-29T04:28:58.789Z,102898.59
2023-01-29T04:31:31.656Z,102896.81
2023-01-29T04:34:07.112Z,102894.25
2023-01-29T04:36:58.626Z,102898.53
2023-01-29T04:39:33.030Z,102889.09
2023-01-29T04:42:12.119Z,102889.94
2023-01-29T04:45:17.709Z,102892.50
2023-01-29T04:48:10.683Z,102891.66
2023-01-29T04:50:42.071Z,102886.47
2023-01-29T04:53:34.749Z,102886.44
2023-01-29T04:56:07.058Z,102872.69
2023-01-29T04:58:41.953Z,102874.44
2023-01-29T05:01:12.909Z,102870.13
2023-01-29T05:03:42.320Z,102867.56
2023-01-29T05:06:11.689Z,102870.13
2023-01-29T05:08:40.405Z,102864.97
2023-01-29T05:11:07.392Z,102870.97
2023-01-29T05:13:39.692Z,102873.53
2023-01-29T05:16:14.484Z,102864.94
2023-01-29T05:18:41.149Z,102868.38
2023-01-29T05:21:09.075Z,102864.06
2023-01-29T05:23:35.827Z,102872.63
2023-01-29T05:26:03.616Z,102872.66
2023-01-29T05:28:30.337Z,102873.50
2023-01-29T05:30:57.520Z,102885.50
2023-01-29T05:33:27.308Z,102881.19
2023-01-29T05:35:55.338Z,102876.03
2023-01-29T05:38:22.880Z,102874.34
2023-01-29T05:40:49.399Z,102877.75
2023-01-29T05:43:15.742Z,102886.31
2023-01-29T05:45:42.279Z,102880.34
2023-01-29T05:48:08.705Z,102880.34
2023-01-29T05:50:35.399Z,102877.75
2023-01-29T05:53:02.043Z,102885.50
2023-01-29T05:55:31.818Z,102866.63
2023-01-29T05:57:58.404Z,102855.47
2023-01-29T06:00:24.904Z,102850.31
2023-01-29T06:02:51.371Z,102848.59
2023-01-29T06:05:17.849Z,102845.19
2023-01-29T06:07:45.497Z,102840.91
2023-01-29T06:10:17.503Z,102845.19
2023-01-29T06:12:44.641Z,102836.56
2023-01-29T06:15:12.016Z,102839.97
2023-01-29T06:17:38.395Z,102845.97
2023-01-29T06:20:05.873Z,102838.28
2023-01-29T06:22:33.444Z,102832.31
2023-01-29T06:24:59.828Z,102833.13
2023-01-29T06:27:26.225Z,102829.69
2023-01-29T06:29:52.606Z,102823.69
2023-01-29T06:32:19.055Z,102820.25
2023-01-29T06:34:46.767Z,102822.81
2023-01-29T06:37:14.392Z,102818.53
2023-01-29T06:39:40.806Z,102821.06
2023-01-29T06:42:07.220Z,102819.34
2023-01-29T06:44:33.625Z,102825.34
2023-01-29T06:47:00.066Z,102833.94
2023-01-29T06:49:26.494Z,102833.09
2023-01-29T06:51:52.875Z,102822.81
2023-01-29T06:54:19.262Z,102821.94
2023-01-29T06:56:45.634Z,102821.09
2023-01-29T06:59:12.691Z,102830.53
2023-01-29T07:01:42.371Z,102823.63
2023-01-29T07:04:08.950Z,102821.09
2023-01-29T07:06:38.826Z,102815.09
2023-01-29T07:09:05.284Z,102818.53
2023-01-29T07:11:33.897Z,102820.25
2023-01-29T07:14:00.385Z,102820.25
2023-01-29T07:16:26.949Z,102813.38
2023-01-29T07:18:53.568Z,102812.53
2023-01-29T07:21:20.208Z,102818.53
2023-01-29T07:23:46.692Z,102823.63
2023-01-29T07:26:13.168Z,102816.78
2023-01-29T07:28:40.617Z,102819.34
2023-01-29T07:31:07.893Z,102819.34
2023-01-29T07:33:34.695Z,102825.34
2023-01-29T07:36:01.168Z,102825.34
2023-01-29T07:38:27.960Z,102810.78
2023-01-29T07:40:54.765Z,102809.94
2023-01-29T07:43:21.166Z,102810.78
2023-01-29T07:45:47.676Z,102809.09
2023-01-29T07:48:14.117Z,102810.84
2023-01-29T07:50:40.606Z,102802.25
2023-01-29T07:53:07.215Z,102791.13
2023-01-29T07:55:33.869Z,102789.41
2023-01-29T07:58:03.062Z,102779.97
2023-01-29T08:00:31.270Z,102781.72
2023-01-29T08:03:06.029Z,102782.56
2023-01-29T08:05:32.802Z,102780.00
2023-01-29T08:08:06.640Z,102778.28
2023-01-29T08:10:36.058Z,102779.16
2023-01-29T08:13:04.319Z,102774.03
2023-01-29T08:15:31.570Z,102780.88
2023-01-29T08:17:58.535Z,102780.03
2023-01-29T08:20:25.791Z,102776.63
2023-01-29T08:23:00.151Z,102779.22
2023-01-29T08:25:27.396Z,102782.66
2023-01-29T08:27:54.495Z,102780.09
2023-01-29T08:30:20.897Z,102775.81
2023-01-29T08:32:47.367Z,102763.81
2023-01-29T08:35:13.815Z,102754.38
2023-01-29T08:37:40.240Z,102759.53
2023-01-29T08:40:09.347Z,102759.56
2023-01-29T08:42:35.811Z,102748.44
2023-01-29T08:45:02.224Z,102747.59
2023-01-29T08:47:29.432Z,102741.66
2023-01-29T08:49:56.051Z,102751.94
2023-01-29T08:52:22.436Z,102745.97
2023-01-29T08:54:48.781Z,102746.78
2023-01-29T08:57:15.223Z,102737.41
2023-01-29T08:59:41.638Z,102739.13
2023-01-29T09:02:10.933Z,102743.47
2023-01-29T09:04:37.293Z,102734.06
2023-01-29T09:07:03.690Z,102738.34
2023-01-29T09:09:30.106Z,102737.53
2023-01-29T09:11:56.510Z,102737.53
2023-01-29T09:14:22.984Z,102729.81
2023-01-29T09:16:49.724Z,102737.56
2023-01-29T09:19:16.217Z,102735.91
2023-01-29T09:21:42.685Z,102735.06
2023-01-29T09:24:09.041Z,102740.19
2023-01-29T09:26:35.830Z,102744.47
2023-01-29T09:29:02.199Z,102750.50
2023-01-29T09:31:28.750Z,102747.09
2023-01-29T09:33:55.223Z,102749.69
2023-01-29T09:36:21.625Z,102746.28
2023-01-29T09:38:48.008Z,102747.19
2023-01-29T09:41:49.481Z,102743.81
2023-01-29T09:44:43.463Z,102746.34
2023-01-29T09:47:15.037Z,102742.06
2023-01-29T09:49:46.976Z,102748.09
2023-01-29T09:52:24.773Z,102741.22
2023-01-29T09:55:02.473Z,102749.88
2023-01-29T09:57:46.055Z,102743.03
2023-01-29T10:00:38.510Z,102739.56
2023-01-29T10:03:11.099Z,102737.88
2023-01-29T10:05:46.343Z,102737.03
2023-01-29T10:08:30.662Z,102736.19
2023-01-29T10:10:59.663Z,102732.78
2023-01-29T10:13:39.379Z,102728.47
2023-01-29T10:16:21.311Z,102719.03
2023-01-29T10:18:59.928Z,102728.47
2023-01-29T10:22:03.548Z,102719.00
2023-01-29T10:24:46.593Z,102715.56
2023-01-29T10:27:15.964Z,102715.56
2023-01-29T10:29:44.324Z,102715.53
2023-01-29T10:32:20.795Z,102698.38
2023-01-29T10:34:54.807Z,102690.66
2023-01-29T10:37:26.363Z,102693.25
2023-01-29T10:39:52.846Z,102692.38
2023-01-29T10:42:41.467Z,102686.41
2023-01-29T10:45:28.075Z,102687.31
2023-01-29T10:47:54.446Z,102685.63
2023-01-29T10:50:40.314Z,102683.91
2023-01-29T10:53:12.625Z,102679.59
2023-01-29T10:56:21.978Z,102678.75
2023-01-29T10:58:51.378Z,102666.75
2023-01-29T11:01:17.897Z,102663.31
2023-01-29T11:03:44.604Z,102664.16
2023-01-29T11:06:21.728Z,102660.72
2023-01-29T11:08:56.804Z,102659.03
2023-01-29T11:11:38.803Z,102654.72
2023-01-29T11:14:12.129Z,102641.00
2023-01-29T11:16:48.946Z,102640.13
2023-01-29T11:19:16.478Z,102636.69
2023-01-29T11:22:01.383Z,102644.44
2023-01-29T11:24:28.553Z,102649.59
2023-01-29T11:26:58.688Z,102643.59
2023-01-29T11:29:45.963Z,102652.19
2023-01-29T11:32:26.553Z,102642.72
2023-01-29T11:34:57.593Z,102639.28
2023-01-29T11:37:38.241Z,102635.84
2023-01-29T11:40:38.347Z,102637.59
2023-01-29T11:43:27.075Z,102623.00
2023-01-29T11:45:56.057Z,102622.09
2023-01-29T11:48:27.351Z,102622.13
2023-01-29T11:50:57.945Z,102616.97
2023-01-29T11:53:40.717Z,102624.72
2023-01-29T11:56:26.759Z,102616.13
2023-01-29T11:58:55.810Z,102613.53
2023-01-29T12:01:36.549Z,102605.78
2023-01-29T12:04:12.854Z,102598.06
2023-01-29T12:06:44.255Z,102596.31
2023-01-29T12:09:17.003Z,102597.19
2023-01-29T12:11:43.566Z,102586.88
2023-01-29T12:14:26.821Z,102578.31
2023-01-29T12:16:59.387Z,102568.03
2023-01-29T12:19:34.618Z,102569.75
2023-01-29T12:22:14.641Z,102553.44
2023-01-29T12:25:06.141Z,102555.16
2023-01-29T12:27:58.803Z,102551.72
2023-01-29T12:30:31.787Z,102547.44
2023-01-29T12:33:12.228Z,102538.00
2023-01-29T12:35:45.834Z,102542.28
2023-01-29T12:38:20.655Z,102530.28
2023-01-29T12:40:55.987Z,102531.13
2023-01-29T12:43:30.600Z,102515.66
2023-01-29T12:45:59.723Z,102522.53
2023-01-29T12:48:32.601Z,102511.38
2023-01-29T12:51:07.626Z,102500.22
2023-01-29T12:53:43.604Z,102490.75
2023-01-29T12:56:15.445Z,102473.59
2023-01-29T12:58:46.530Z,102471.88
2023-01-29T13:01:27.098Z,102466.72
2023-01-29T13:03:59.472Z,102454.69
2023-01-29T13:06:31.211Z,102450.38
2023-01-29T13:09:02.948Z,102441.81
2023-01-29T13:11:55.991Z,102433.22
2023-01-29T13:14:25.954Z,102420.34
2023-01-29T13:17:01.259Z,102411.75
2023-01-29T13:19:34.224Z,102400.59
2023-01-29T13:22:05.343Z,102390.28
2023-01-29T13:24:39.572Z,102393.72
2023-01-29T13:27:06.784Z,102389.41
2023-01-29T13:29:33.786Z,102383.38
2023-01-29T13:32:03.501Z,102385.97
2023-01-29T13:34:50.518Z,102381.66
2023-01-29T13:37:19.932Z,102378.22
2023-01-29T13:39:50.366Z,102375.63
2023-01-29T13:42:18.537Z,102370.50
2023-01-29T13:45:01.209Z,102367.06
2023-01-29T13:47:30.630Z,102375.66
2023-01-29T13:50:07.946Z,102368.78
2023-01-29T13:52:45.018Z,102370.50
2023-01-29T13:55:14.444Z,102365.34
2023-01-29T13:57:43.884Z,102371.34
2023-01-29T14:00:22.599Z,102360.16
2023-01-29T14:03:11.638Z,102357.59
2023-01-29T14:05:43.018Z,102365.34
2023-01-29T14:08:09.337Z,102359.31
2023-01-29T14:10:37.521Z,102362.78
2023-01-29T14:13:03.821Z,102361.03
2023-01-29T14:15:36.041Z,102351.59
2023-01-29T14:18:08.432Z,102342.97
2023-01-29T14:20:45.854Z,102339.53
2023-01-29T14:23:30.585Z,102336.09
2023-01-29T14:26:00.717Z,102348.13
2023-01-29T14:28:30.646Z,102336.97
2023-01-29T14:30:57.555Z,102330.09
2023-01-29T14:33:38.553Z,102341.25
2023-01-29T14:36:09.301Z,102329.22
2023-01-29T14:38:36.222Z,102325.78
2023-01-29T14:41:31.403Z,102322.34
2023-01-29T14:44:35.635Z,102327.50
2023-01-29T14:47:02.224Z,102318.91
2023-01-29T14:49:57.720Z,102317.19
2023-01-29T14:52:38.288Z,102316.34
2023-01-29T14:55:11.038Z,102317.22
2023-01-29T14:57:38.791Z,102309.44
2023-01-29T15:00:21.438Z,102302.56
2023-01-29T15:03:01.302Z,102289.69
2023-01-29T15:05:32.803Z,102293.97
2023-01-29T15:08:16.477Z,102294.81
2023-01-29T15:10:48.245Z,102278.50
2023-01-29T15:13:30.894Z,102286.22
2023-01-29T15:16:06.212Z,102281.94
2023-01-29T15:18:43.148Z,102288.81
2023-01-29T15:21:19.310Z,102298.25
2023-01-29T15:23:48.693Z,102287.97
2023-01-29T15:26:24.761Z,102281.94
2023-01-29T15:29:04.121Z,102286.22
2023-01-29T15:31:31.290Z,102279.38
2023-01-29T15:34:03.021Z,102272.50
2023-01-29T15:36:31.536Z,102261.34
2023-01-29T15:39:09.746Z,102262.19
2023-01-29T15:41:36.163Z,102261.34
2023-01-29T15:44:02.552Z,102258.75
2023-01-29T15:46:41.267Z,102254.47
2023-01-29T15:49:11.463Z,102247.59
2023-01-29T15:51:39.032Z,102247.59
2023-01-29T15:54:15.912Z,102252.75
2023-01-29T15:56:52.270Z,102249.31
2023-01-29T15:59:26.977Z,102256.19
2023-01-29T16:01:54.375Z,102256.19
2023-01-29T16:04:26.807Z,102257.91
2023-01-29T16:06:55.581Z,102260.50
2023-01-29T16:09:25.095Z,102257.06
2023-01-29T16:11:54.468Z,102263.94
2023-01-29T16:14:25.454Z,102263.94
2023-01-29T16:16:52.595Z,102265.66
2023-01-29T16:19:22.971Z,102263.97
2023-01-29T16:22:16.180Z,102255.38
2023-01-29T16:24:42.626Z,102262.25
2023-01-29T16:27:13.788Z,102258.81
2023-01-29T16:29:40.649Z,102260.53
2023-01-29T16:32:09.215Z,102253.69
2023-01-29T16:34:42.059Z,102266.56
2023-01-29T16:37:25.305Z,102244.22
2023-01-29T16:39:52.852Z,102244.25
2023-01-29T16:42:23.608Z,102240.78
2023-01-29T16:44:51.191Z,102239.06
2023-01-29T16:47:59.182Z,102239.94
2023-01-29T16:50:36.194Z,102236.53
2023-01-29T16:53:16.368Z,102242.50
2023-01-29T16:55:46.841Z,102239.13
2023-01-29T16:58:17.610Z,102227.06
2023-01-29T17:00:49.593Z,102231.38
2023-01-29T17:03:18.225Z,102233.09
2023-01-29T17:05:45.495Z,102233.09
2023-01-29T17:08:25.469Z,102228.81
2023-01-29T17:10:53.502Z,102224.50
2023-01-29T17:13:44.174Z,102231.38
2023-01-29T17:16:25.687Z,102221.91
2023-01-29T17:18:52.399Z,102212.50
2023-01-29T17:21:18.893Z,102221.06
2023-01-29T17:23:45.324Z,102213.38
2023-01-29T17:26:14.229Z,102204.75
2023-01-29T17:28:41.775Z,102201.31
2023-01-29T17:31:08.771Z,102200.47
2023-01-29T17:33:44.086Z,102206.50
2023-01-29T17:36:16.519Z,102200.47
2023-01-29T17:38:43.382Z,102203.06
2023-01-29T17:41:28.364Z,102195.34
2023-01-29T17:43:54.799Z,102199.63
2023-01-29T17:46:21.605Z,102187.59
2023-01-29T17:48:49.441Z,102178.16
2023-01-29T17:51:17.723Z,102168.69
2023-01-29T17:53:46.272Z,102164.44
2023-01-29T17:56:27.970Z,102166.13
2023-01-29T17:58:54.336Z,102167.84
2023-01-29T18:01:20.812Z,102154.97
2023-01-29T18:03:47.602Z,102154.09
2023-01-29T18:06:28.265Z,102164.41
2023-01-29T18:08:54.782Z,102160.97
2023-01-29T18:11:21.314Z,102151.53
2023-01-29T18:13:47.729Z,102142.94
2023-01-29T18:16:14.272Z,102135.22
2023-01-29T18:18:40.659Z,102130.91
2023-01-29T18:21:07.965Z,102128.34
2023-01-29T18:23:34.446Z,102131.75
2023-01-29T18:26:00.959Z,102126.63
2023-01-29T18:28:27.469Z,102121.47
2023-01-29T18:30:54.021Z,102118.03
2023-01-29T18:33:20.803Z,102106.00
2023-01-29T18:35:48.199Z,102110.31
2023-01-29T18:38:14.948Z,102107.72
2023-01-29T18:40:41.350Z,102095.69
2023-01-29T18:43:07.766Z,102084.53
2023-01-29T18:45:34.146Z,102074.25
2023-01-29T18:48:01.350Z,102070.78
2023-01-29T18:50:28.006Z,102076.78
2023-01-29T18:52:54.889Z,102067.38
2023-01-29T18:55:21.924Z,102062.19
2023-01-29T18:58:27.714Z,102063.91
2023-01-29T19:00:38.297Z,102059.59
2023-01-29T19:03:04.680Z,102042.44
2023-01-29T19:05:33.694Z,102042.44
2023-01-29T19:08:00.099Z,102035.59
2023-01-29T19:10:26.496Z,102032.13
2023-01-29T19:12:52.989Z,102037.28
2023-01-29T19:15:21.988Z,102037.28
2023-01-29T19:17:50.540Z,102021.84
2023-01-29T19:20:17.430Z,102039.88
2023-01-29T19:22:43.871Z,102051.88
2023-01-29T19:25:10.889Z,102045.88
2023-01-29T19:27:37.298Z,102035.53
2023-01-29T19:30:05.627Z,102022.66
2023-01-29T19:32:32.490Z,102031.25
2023-01-29T19:34:58.966Z,102025.22
2023-01-29T19:37:25.817Z,102026.09
2023-01-29T19:39:53.529Z,102025.22
2023-01-29T19:42:20.811Z,102015.81
2023-01-29T19:44:47.365Z,102022.66
2023-01-29T19:47:13.820Z,102020.06
2023-01-29T19:49:40.546Z,102019.22
2023-01-29T19:52:14.762Z,102021.81
2023-01-29T19:54:45.985Z,102006.34
2023-01-29T19:57:12.387Z,102002.03
2023-01-29T19:59:38.802Z,102008.91
2023-01-29T20:02:05.302Z,102010.63
2023-01-29T20:04:31.842Z,102018.34
2023-01-29T20:06:58.413Z,102014.03
2023-01-29T20:09:24.815Z,101996.88
2023-01-29T20:11:51.222Z,101994.31
2023-01-29T20:14:17.657Z,101991.69
2023-01-29T20:16:44.104Z,102004.59
2023-01-29T20:19:13.432Z,101993.44
2023-01-29T20:21:42.211Z,101996.84
2023-01-29T20:24:12.336Z,101992.53
2023-01-29T20:26:39.030Z,101986.50
2023-01-29T20:29:06.370Z,101995.13
2023-01-29T20:31:32.892Z,101982.25
2023-01-29T20:33:59.326Z,101965.91
2023-01-29T20:36:25.756Z,101975.34
2023-01-29T20:38:52.167Z,101991.66
2023-01-29T20:41:19.898Z,101996.81
2023-01-29T20:43:47.221Z,101983.94
2023-01-29T20:46:14.024Z,101987.34
2023-01-29T20:48:42.038Z,101981.34
2023-01-29T20:51:15.446Z,101982.19
2023-01-29T20:53:43.213Z,101995.94
2023-01-29T20:56:09.934Z,101989.06
2023-01-29T20:58:38.054Z,101976.16
2023-01-29T21:01:09.397Z,101964.13
2023-01-29T21:03:35.842Z,101970.97
2023-01-29T21:06:02.522Z,101970.09
2023-01-29T21:08:28.922Z,101970.09
2023-01-29T21:10:55.311Z,101982.97
2023-01-29T21:13:21.758Z,101986.41
2023-01-29T21:15:49.980Z,101970.03
2023-01-29T21:18:16.617Z,101971.72
2023-01-29T21:20:43.015Z,101966.56
2023-01-29T21:23:09.659Z,101965.69
2023-01-29T21:25:36.387Z,101975.16
2023-01-29T21:28:04.311Z,101975.13
2023-01-29T21:30:30.887Z,101978.53
2023-01-29T21:32:57.306Z,101962.22
2023-01-29T21:35:23.738Z,101974.22
2023-01-29T21:37:50.222Z,101966.50
2023-01-29T21:40:17.212Z,101978.50
2023-01-29T21:43:02.596Z,101976.75
2023-01-29T21:45:29.166Z,101941.50
2023-01-29T21:47:55.596Z,101916.59
2023-01-29T21:50:22.026Z,101905.41
2023-01-29T21:52:48.427Z,101889.09
2023-01-29T21:55:15.802Z,101890.81
2023-01-29T21:57:42.931Z,101867.59
2023-01-29T22:00:11.858Z,101853.88
2023-01-29T22:02:38.313Z,101846.16
2023-01-29T22:05:18.088Z,101841.03
2023-01-29T22:07:44.967Z,101850.47
2023-01-29T22:10:12.387Z,101834.09
2023-01-29T22:12:39.401Z,101836.66
2023-01-29T22:15:07.161Z,101849.50
2023-01-29T22:17:33.992Z,101858.94
2023-01-29T22:20:00.875Z,101848.59
2023-01-29T22:22:27.331Z,101839.13
2023-01-29T22:24:55.055Z,101833.91
2023-01-29T22:27:21.512Z,101827.91
2023-01-29T22:29:47.879Z,101829.59
2023-01-29T22:32:14.272Z,101845.91
2023-01-29T22:34:40.893Z,101838.16
2023-01-29T22:37:07.528Z,101823.53
2023-01-29T22:39:33.966Z,101823.50
2023-01-29T22:42:00.364Z,101809.72
2023-01-29T22:44:26.736Z,101814.88
2023-01-29T22:46:53.222Z,101803.66
2023-01-29T22:49:19.749Z,101789.03
2023-01-29T22:51:47.034Z,101789.00
2023-01-29T22:54:15.388Z,101782.09
2023-01-29T22:56:41.853Z,101776.03
2023-01-29T22:59:10.199Z,101775.06
2023-01-29T23:01:36.663Z,101809.47
2023-01-29T23:04:03.059Z,101811.97
2023-01-29T23:06:29.448Z,101804.19
2023-01-29T23:08:55.942Z,101792.13
2023-01-29T23:11:23.474Z,101794.66
2023-01-29T23:13:52.744Z,101783.44
2023-01-29T23:16:21.464Z,101775.66
2023-01-29T23:18:53.553Z,101773.06
2023-01-29T23:21:21.766Z,101773.91
2023-01-29T23:23:48.800Z,101773.91
2023-01-29T23:26:33.878Z,101758.41
2023-01-29T23:29:00.567Z,101756.63
2023-01-29T23:31:27.033Z,101747.09
2023-01-29T23:33:53.470Z,101738.41
2023-01-29T23:36:19.824Z,101727.19
2023-01-29T23:38:46.261Z,101732.28
2023-01-29T23:41:12.630Z,101715.88
2023-01-29T23:43:39.061Z,101710.69
2023-01-29T23:46:05.675Z,101719.25
2023-01-29T23:48:32.031Z,101711.50
2023-01-29T23:50:58.370Z,101714.91
2023-01-29T23:53:24.785Z,101714.84
2023-01-29T23:55:59.030Z,101713.94
2023-01-29T23:58:25.895Z,101708.75
